Time;durP1;ratioP1;P1;durP2;ratioP2;P2;SDS_P1;SDS_P2;PMS_P1;PMS_P2;Temp;Humidity;BMP_temperature;BMP_pressure;BME280_temperature;BME280_humidity;BME280_pressure;Samples;Min_cycle;Max_cycle;Signal;HPM_P1;HPM_P2
2021/10/01 00:01:18;;;;;;;3.83;1.70;;;;;;;7.23;85.25;101180.44;5008327;28;20077;-75
2021/10/01 00:04:04;;;;;;;5.00;1.42;;;;;;;7.14;84.48;101179.19;5021148;28;20176;-74
2021/10/01 00:06:50;;;;;;;2.58;1.65;;;;;;;6.95;85.74;101184.84;5011292;28;20065;-74
2021/10/01 00:09:35;;;;;;;3.58;1.63;;;;;;;6.88;86.18;101180.03;5012163;28;20082;-74
2021/10/01 00:12:20;;;;;;;3.13;1.25;;;;;;;6.64;87.09;101175.28;5009726;28;20197;-74
2021/10/01 00:15:07;;;;;;;2.28;1.45;;;;;;;6.51;87.75;101174.34;5010636;28;20048;-74
2021/10/01 00:17:52;;;;;;;4.93;1.85;;;;;;;6.49;88.29;101172.69;5012135;28;20423;-74
2021/10/01 00:20:38;;;;;;;5.65;2.10;;;;;;;6.42;88.45;101164.25;5011293;28;20064;-73
2021/10/01 00:23:24;;;;;;;4.97;1.92;;;;;;;6.28;89.13;101172.25;5003026;28;20157;-75
2021/10/01 00:26:10;;;;;;;3.47;1.67;;;;;;;6.18;89.30;101161.28;5012290;28;20048;-74
2021/10/01 00:28:55;;;;;;;3.93;1.60;;;;;;;6.09;89.75;101156.50;5000992;28;20057;-73
2021/10/01 00:31:42;;;;;;;3.75;1.40;;;;;;;6.08;90.36;101152.97;5002642;28;20045;-76
2021/10/01 00:34:27;;;;;;;5.03;1.90;;;;;;;6.06;90.46;101154.88;5009282;28;20060;-75
2021/10/01 00:37:12;;;;;;;3.50;1.65;;;;;;;5.98;90.50;101143.81;5009257;28;20056;-75
2021/10/01 00:39:58;;;;;;;7.35;1.98;;;;;;;5.87;91.31;101149.75;5013279;28;20466;-75
2021/10/01 00:42:44;;;;;;;4.78;1.70;;;;;;;5.93;91.37;101139.75;5006585;28;20092;-75
2021/10/01 00:45:29;;;;;;;5.07;1.67;;;;;;;5.87;91.17;101151.56;4999372;28;20057;-75
2021/10/01 00:48:14;;;;;;;7.67;1.93;;;;;;;5.80;91.58;101142.22;5006206;28;20069;-74
2021/10/01 00:51:00;;;;;;;4.97;2.30;;;;;;;5.86;91.86;101139.19;5005588;28;20061;-74
2021/10/01 00:53:46;;;;;;;3.70;1.95;;;;;;;5.80;92.00;101134.22;5010198;28;20057;-74
2021/10/01 00:56:32;;;;;;;5.37;1.83;;;;;;;5.76;91.94;101135.38;5011252;28;20180;-75
2021/10/01 00:59:17;;;;;;;6.00;1.80;;;;;;;5.66;92.20;101132.41;5009069;28;20064;-75
2021/10/01 01:02:04;;;;;;;2.95;2.05;;;;;;;5.66;92.28;101139.53;5011994;28;20507;-75
2021/10/01 01:04:49;;;;;;;3.30;2.00;;;;;;;5.60;92.32;101135.44;5016897;28;20080;-75
2021/10/01 01:07:49;;;;;;;3.17;1.77;;;;;;;5.54;92.83;101139.31;5008583;28;20053;-76
2021/10/01 01:10:46;;;;;;;4.20;2.38;;;;;;;5.59;93.24;101136.38;5003177;28;20056;-75
2021/10/01 01:13:40;;;;;;;4.65;2.00;;;;;;;5.63;92.57;101137.91;5011991;28;20131;-74
2021/10/01 01:16:32;;;;;;;6.05;2.35;;;;;;;5.59;92.31;101141.72;5011758;28;20057;-75
2021/10/01 01:19:38;;;;;;;5.80;2.20;;;;;;;5.57;93.23;101123.16;5004472;28;20097;-73
2021/10/01 01:22:30;;;;;;;4.60;2.45;;;;;;;5.55;92.97;101130.34;5013822;28;20065;-74
2021/10/01 01:25:36;;;;;;;3.92;2.42;;;;;;;5.67;92.76;101126.13;5007947;28;20116;-75
2021/10/01 01:28:34;;;;;;;4.95;2.38;;;;;;;5.68;93.20;101124.31;5001522;28;20065;-74
2021/10/01 01:31:25;;;;;;;5.72;2.60;;;;;;;5.53;93.48;101126.94;5002515;28;20539;-76
2021/10/01 01:34:18;;;;;;;4.53;2.30;;;;;;;5.51;92.98;101133.31;5006700;28;20127;-74
2021/10/01 01:37:07;;;;;;;3.90;2.03;;;;;;;5.52;93.55;101129.69;5011906;28;20431;-74
2021/10/01 01:39:57;;;;;;;3.03;1.88;;;;;;;5.37;93.50;101135.94;5012537;28;20061;-74
2021/10/01 01:42:44;;;;;;;6.30;2.60;;;;;;;5.46;93.59;101130.94;5013093;28;20056;-75
2021/10/01 01:45:31;;;;;;;4.07;2.30;;;;;;;5.40;94.08;101120.63;5052299;23;21044;-61
2021/10/01 01:48:18;;;;;;;3.05;2.13;;;;;;;5.36;93.64;101124.41;5027101;28;20518;-63
2021/10/01 01:51:05;;;;;;;3.05;2.05;;;;;;;5.39;93.63;101118.91;5018001;28;20123;-63
2021/10/01 01:53:51;;;;;;;3.47;2.50;;;;;;;5.29;93.63;101121.25;5011071;28;20264;-61
2021/10/01 01:56:36;;;;;;;4.03;2.20;;;;;;;5.23;93.99;101118.09;5010866;28;20049;-62
2021/10/01 01:59:22;;;;;;;4.68;2.13;;;;;;;5.20;94.56;101120.91;5001601;28;20076;-61
2021/10/01 02:02:08;;;;;;;4.35;2.25;;;;;;;5.18;94.65;101114.81;5103021;23;20056;-79
2021/10/01 02:04:55;;;;;;;3.05;2.13;;;;;;;5.18;94.56;101121.00;5035191;28;20052;-81
2021/10/01 02:07:42;;;;;;;;;;;;;;;5.15;95.17;101115.00;5035617;28;20906;-79
2021/10/01 02:10:30;;;;;;;6.28;2.17;;;;;;;5.10;95.29;101120.59;5034079;28;19967;-78
2021/10/01 02:13:15;;;;;;;5.55;2.58;;;;;;;5.22;94.83;101117.25;5018511;28;20061;-78
2021/10/01 02:16:01;;;;;;;3.88;2.63;;;;;;;5.11;94.73;101118.81;5028396;28;20112;-81
2021/10/01 02:18:50;;;;;;;6.47;2.65;;;;;;;5.12;95.06;101116.06;5021926;28;20131;-80
2021/10/01 02:21:37;;;;;;;6.20;2.10;;;;;;;4.99;94.74;101113.25;5035588;28;20531;-79
2021/10/01 02:24:28;;;;;;;3.33;2.10;;;;;;;4.87;95.21;101115.75;5041862;28;20103;-80
2021/10/01 02:27:23;;;;;;;4.82;2.30;;;;;;;4.80;95.34;101115.22;5041276;28;20065;-78
2021/10/01 02:30:12;;;;;;;3.45;2.13;;;;;;;4.76;95.66;101111.03;5032350;28;20049;-77
2021/10/01 02:33:00;;;;;;;4.50;2.17;;;;;;;4.75;95.95;101108.44;5019440;28;20528;-78
2021/10/01 02:35:46;;;;;;;5.60;2.83;;;;;;;4.83;96.16;101101.72;5031225;28;20522;-79
2021/10/01 02:38:31;;;;;;;5.40;2.38;;;;;;;4.79;96.54;101102.00;5031865;28;20065;-78
2021/10/01 02:41:18;;;;;;;5.63;2.90;;;;;;;4.83;95.90;101107.06;5033653;28;20104;-79
2021/10/01 02:44:04;;;;;;;6.10;2.53;;;;;;;4.78;95.75;101105.63;5022721;28;20056;-79
2021/10/01 02:46:49;;;;;;;3.22;2.20;;;;;;;4.73;95.91;101102.34;5032700;28;20200;-78
2021/10/01 02:49:36;;;;;;;3.42;1.85;;;;;;;4.69;95.83;101096.34;5017503;28;20121;-79
2021/10/01 02:52:27;;;;;;;4.32;2.55;;;;;;;4.68;96.13;101095.47;5029037;28;20052;-75
2021/10/01 02:55:16;;;;;;;5.30;2.72;;;;;;;4.75;96.21;101085.38;5032187;28;20052;-78
2021/10/01 02:58:09;;;;;;;3.97;2.60;;;;;;;4.66;96.04;101089.41;5026316;28;20514;-79
2021/10/01 03:00:54;;;;;;;3.92;2.45;;;;;;;4.58;96.00;101090.75;5024823;28;20072;-76
2021/10/01 03:03:43;;;;;;;5.07;2.53;;;;;;;4.54;95.82;101081.25;5032059;28;20085;-77
2021/10/01 03:06:34;;;;;;;4.00;2.38;;;;;;;4.50;96.62;101077.03;5014482;28;20060;-77
2021/10/01 03:09:23;;;;;;;2.97;2.00;;;;;;;4.46;96.12;101071.03;5009138;28;20075;-79
2021/10/01 03:12:08;;;;;;;3.95;1.95;;;;;;;4.44;96.27;101064.09;5015939;28;20076;-79
2021/10/01 03:14:55;;;;;;;4.95;2.25;;;;;;;4.39;96.37;101065.22;5030594;28;20199;-79
2021/10/01 03:17:42;;;;;;;3.90;2.10;;;;;;;4.38;96.27;101057.28;5024955;28;20056;-81
2021/10/01 03:20:28;;;;;;;4.53;2.53;;;;;;;4.35;96.34;101055.66;5036790;28;20057;-80
2021/10/01 03:23:16;;;;;;;7.30;3.20;;;;;;;4.32;96.47;101061.16;5036171;28;20053;-79
2021/10/01 03:26:02;;;;;;;4.07;2.30;;;;;;;4.31;96.78;101061.25;5035053;28;20055;-81
2021/10/01 03:28:47;;;;;;;3.83;2.30;;;;;;;4.32;96.73;101066.47;5028324;28;20057;-79
2021/10/01 03:31:34;;;;;;;3.28;2.20;;;;;;;4.30;96.77;101065.72;5030072;28;20064;-78
2021/10/01 03:34:19;;;;;;;3.58;2.40;;;;;;;4.30;96.50;101070.16;5005725;28;20057;-78
2021/10/01 03:37:05;;;;;;;5.15;2.10;;;;;;;4.26;96.37;101061.53;5031230;28;20061;-79
2021/10/01 03:39:55;;;;;;;4.07;2.35;;;;;;;4.20;96.41;101053.88;5029284;28;20109;-81
2021/10/01 03:42:42;;;;;;;3.85;2.15;;;;;;;4.18;96.93;101061.06;5023994;28;20051;-81
2021/10/01 03:45:28;;;;;;;3.53;2.38;;;;;;;4.20;97.36;101060.97;5017921;28;20468;-80
2021/10/01 03:48:14;;;;;;;6.82;2.40;;;;;;;4.20;96.50;101053.88;5030702;28;20112;-81
2021/10/01 03:51:00;;;;;;;4.57;2.83;;;;;;;4.19;96.98;101057.47;5029793;28;20601;-79
2021/10/01 03:53:45;;;;;;;4.82;2.33;;;;;;;4.18;96.88;101050.44;5010802;28;20503;-79
2021/10/01 03:56:31;;;;;;;4.30;2.33;;;;;;;4.10;96.65;101042.88;5025167;28;20060;-80
2021/10/01 03:59:16;;;;;;;7.70;2.33;;;;;;;4.11;96.38;101043.72;5020563;28;20060;-81
2021/10/01 04:02:01;;;;;;;3.40;2.17;;;;;;;4.10;97.17;101036.72;5019111;28;20134;-81
2021/10/01 04:04:47;;;;;;;2.70;2.05;;;;;;;4.12;96.59;101042.78;5035279;28;20095;-78
2021/10/01 04:07:33;;;;;;;6.07;2.75;;;;;;;4.09;96.54;101035.00;5013857;28;20053;-79
2021/10/01 04:10:18;;;;;;;5.55;2.88;;;;;;;4.16;97.45;101044.34;5016966;28;20068;-76
2021/10/01 04:13:06;;;;;;;5.85;2.35;;;;;;;4.22;97.19;101027.22;5025264;28;20139;-80
2021/10/01 04:15:52;;;;;;;4.15;2.40;;;;;;;4.16;96.47;101031.06;5029798;28;20053;-81
2021/10/01 04:18:37;;;;;;;5.30;2.53;;;;;;;4.09;97.10;101035.84;5019774;28;20582;-77
2021/10/01 04:21:24;;;;;;;4.30;2.28;;;;;;;4.10;96.58;101028.75;5021971;28;20192;-80
2021/10/01 04:24:09;;;;;;;3.47;2.40;;;;;;;4.17;96.54;101019.50;5016911;28;20534;-77
2021/10/01 04:26:54;;;;;;;4.18;2.20;;;;;;;4.16;97.02;101012.47;5012782;28;20079;-81
2021/10/01 04:29:39;;;;;;;3.78;2.17;;;;;;;4.09;96.36;101008.44;5030668;28;20048;-79
2021/10/01 04:32:24;;;;;;;5.27;2.50;;;;;;;4.10;96.94;101010.13;5027234;28;20111;-81
2021/10/01 04:35:09;;;;;;;5.75;2.50;;;;;;;4.07;97.55;101005.00;5029303;28;20307;-79
2021/10/01 04:37:56;;;;;;;5.20;2.27;;;;;;;4.06;97.08;101001.50;5025703;28;20469;-80
2021/10/01 04:40:41;;;;;;;4.57;2.10;;;;;;;4.03;97.52;101001.66;5028793;28;20190;-80
2021/10/01 04:43:27;;;;;;;3.67;1.98;;;;;;;4.04;96.96;101002.53;5023970;28;20056;-78
2021/10/01 04:46:12;;;;;;;5.88;2.35;;;;;;;4.02;97.16;100999.94;5022221;28;20180;-79
2021/10/01 04:48:57;;;;;;;4.75;2.63;;;;;;;4.05;97.02;100999.78;5015774;28;20061;-80
2021/10/01 04:51:43;;;;;;;4.70;2.40;;;;;;;4.05;97.36;100994.47;5024930;28;20521;-80
2021/10/01 04:54:29;;;;;;;6.10;3.10;;;;;;;4.09;97.61;100992.50;5021178;28;20061;-79
2021/10/01 04:57:14;;;;;;;5.18;2.38;;;;;;;4.12;97.27;100994.97;5027560;28;20044;-78
2021/10/01 04:59:59;;;;;;;3.78;2.15;;;;;;;4.17;97.12;100992.94;5018181;28;20057;-80
2021/10/01 05:02:44;;;;;;;3.67;2.25;;;;;;;4.18;97.51;101002.63;5010963;28;20052;-81
2021/10/01 05:05:29;;;;;;;3.65;2.03;;;;;;;4.20;97.34;101006.03;5017309;28;20057;-81
2021/10/01 05:08:15;;;;;;;5.75;2.35;;;;;;;4.26;97.08;100996.84;5028744;28;20057;-82
2021/10/01 05:11:01;;;;;;;4.07;2.20;;;;;;;4.26;96.74;101002.16;5024769;28;20132;-78
2021/10/01 05:13:46;;;;;;;3.33;2.15;;;;;;;4.28;96.41;101008.28;5015941;28;20052;-78
2021/10/01 05:16:32;;;;;;;4.82;2.78;;;;;;;4.21;96.77;101007.75;5028940;28;20092;-77
2021/10/01 05:19:17;;;;;;;5.75;2.22;;;;;;;4.24;96.46;101004.91;5023458;28;20435;-78
2021/10/01 05:22:02;;;;;;;3.63;2.20;;;;;;;4.21;96.88;101005.09;5021057;28;20045;-78
2021/10/01 05:24:50;;;;;;;2.83;1.75;;;;;;;4.23;96.24;101010.31;5019701;28;20390;-75
2021/10/01 05:27:37;;;;;;;4.80;2.05;;;;;;;4.19;96.75;101008.78;5009420;28;20176;-76
2021/10/01 05:30:23;;;;;;;3.78;2.45;;;;;;;4.30;96.47;101004.59;5024787;28;20059;-74
2021/10/01 05:33:10;;;;;;;4.30;2.67;;;;;;;4.48;96.42;101004.47;5007467;28;20420;-76
2021/10/01 05:35:55;;;;;;;3.78;1.92;;;;;;;4.50;95.94;101008.78;5007411;28;20100;-80
2021/10/01 05:38:41;;;;;;;3.33;2.30;;;;;;;4.45;95.60;101012.63;5007377;28;20052;-79
2021/10/01 05:41:28;;;;;;;3.67;1.83;;;;;;;4.45;95.39;101007.31;5000952;28;20053;-78
2021/10/01 05:44:15;;;;;;;4.93;2.25;;;;;;;4.44;95.68;101006.47;5017274;28;20056;-77
2021/10/01 05:47:02;;;;;;;5.05;2.03;;;;;;;4.48;96.03;101002.69;5013771;28;20107;-80
2021/10/01 05:49:48;;;;;;;5.90;2.10;;;;;;;4.56;95.91;101007.56;5028066;28;20057;-76
2021/10/01 05:52:50;;;;;;;2.85;2.10;;;;;;;4.68;95.74;101004.22;5022057;28;20057;-75
2021/10/01 05:55:35;;;;;;;2.88;2.13;;;;;;;4.89;94.94;100997.66;5020356;28;20060;-78
2021/10/01 05:58:20;;;;;;;4.35;2.55;;;;;;;4.99;94.18;100998.84;5017142;28;20437;-75
2021/10/01 06:01:07;;;;;;;6.45;2.58;;;;;;;5.10;93.99;100992.88;5027105;28;20069;-78
2021/10/01 06:03:53;;;;;;;5.38;2.10;;;;;;;5.29;93.72;100987.31;5014017;28;20386;-80
2021/10/01 06:06:39;;;;;;;4.53;2.35;;;;;;;5.56;92.64;100990.09;5019528;28;20060;-75
2021/10/01 06:09:24;;;;;;;4.50;2.25;;;;;;;5.65;91.64;100991.34;5011987;28;20557;-79
2021/10/01 06:12:10;;;;;;;5.17;2.43;;;;;;;5.66;91.38;100995.72;5018396;28;20096;-78
2021/10/01 06:14:55;;;;;;;4.35;2.00;;;;;;;5.62;90.88;100992.38;5009902;28;20049;-77
2021/10/01 06:17:42;;;;;;;6.83;2.53;;;;;;;5.64;91.70;100989.63;5011299;28;20092;-80
2021/10/01 06:20:28;;;;;;;3.35;2.10;;;;;;;5.73;91.69;100989.91;5013252;28;20056;-79
2021/10/01 06:23:13;;;;;;;8.00;2.20;;;;;;;5.77;92.23;100990.56;5018797;28;20410;-77
2021/10/01 06:25:58;;;;;;;3.85;1.85;;;;;;;5.87;91.93;100991.72;5012867;28;20056;-76
2021/10/01 06:28:43;;;;;;;3.85;2.05;;;;;;;6.03;92.01;100986.31;5013593;28;20056;-80
2021/10/01 06:31:28;;;;;;;3.13;2.43;;;;;;;6.19;91.67;100988.88;5012357;28;20063;-78
2021/10/01 06:34:15;;;;;;;5.13;2.17;;;;;;;6.36;90.77;100981.47;5025040;28;20074;-79
2021/10/01 06:37:00;;;;;;;5.93;2.75;;;;;;;6.54;90.10;100986.59;5008201;28;20057;-77
2021/10/01 06:39:48;;;;;;;3.72;2.47;;;;;;;6.69;89.83;100986.44;5021377;28;20048;-80
2021/10/01 06:42:34;;;;;;;5.82;2.85;;;;;;;6.83;87.84;100982.00;5027796;28;20175;-80
2021/10/01 06:45:23;;;;;;;6.40;3.10;;;;;;;7.02;87.77;100983.34;5021885;28;20052;-80
2021/10/01 06:48:17;;;;;;;4.55;2.50;;;;;;;7.20;86.45;100988.38;5020615;28;20052;-79
2021/10/01 07:22:20;;;;;;;3.03;1.92;;;;;;;9.28;76.65;100963.44;5013132;28;20060;-78
2021/10/01 07:34:54;;;;;;;4.18;1.65;;;;;;;10.08;72.11;100969.59;5003593;28;20463;-80
2021/10/01 08:20:29;;;;;;;2.92;0.93;;;;;;;12.11;65.48;100949.66;5015915;28;20530;-62
2021/10/01 08:23:15;;;;;;;2.83;1.00;;;;;;;12.23;66.58;100955.78;5018772;28;20049;-63
2021/10/01 08:26:01;;;;;;;4.85;1.17;;;;;;;12.44;62.73;100947.63;5015696;28;20128;-61
2021/10/01 08:28:46;;;;;;;3.75;0.80;;;;;;;12.47;60.88;100936.56;5025309;28;20531;-63
2021/10/01 08:31:31;;;;;;;4.13;0.90;;;;;;;12.72;61.39;100935.19;5025561;28;20115;-63
2021/10/01 08:34:17;;;;;;;1.80;0.70;;;;;;;12.98;61.09;100932.75;5022291;28;20061;-62
2021/10/01 08:37:02;;;;;;;2.08;0.75;;;;;;;12.79;60.24;100925.56;5021555;28;20132;-61
2021/10/01 08:39:48;;;;;;;1.83;0.80;;;;;;;13.01;60.46;100936.00;5018800;28;20048;-63
2021/10/01 08:42:35;;;;;;;2.60;0.83;;;;;;;13.31;60.64;100920.69;5023733;28;20515;-62
2021/10/01 08:45:23;;;;;;;2.40;0.90;;;;;;;13.56;61.56;100922.75;5017547;28;20320;-62
2021/10/01 08:48:08;;;;;;;2.33;0.70;;;;;;;13.59;60.85;100917.06;5016054;28;20056;-62
2021/10/01 08:50:53;;;;;;;1.77;0.90;;;;;;;13.78;59.60;100921.53;5017362;28;20506;-62
2021/10/01 08:53:38;;;;;;;2.90;1.27;;;;;;;13.74;60.83;100909.34;5020109;28;20626;-63
2021/10/01 08:56:25;;;;;;;3.05;0.90;;;;;;;13.64;59.88;100903.16;5015996;28;20443;-62
2021/10/01 08:59:11;;;;;;;1.92;0.70;;;;;;;13.82;58.24;100908.59;5020731;28;20120;-63
2021/10/01 09:01:56;;;;;;;2.00;0.75;;;;;;;14.21;57.76;100909.25;5015047;28;20184;-64
2021/10/01 09:04:41;;;;;;;3.05;0.80;;;;;;;14.46;56.87;100918.50;5026300;28;20060;-64
2021/10/01 09:07:26;;;;;;;3.70;0.55;;;;;;;14.48;58.52;100905.69;5023474;28;20067;-63
2021/10/01 09:10:13;;;;;;;2.60;0.93;;;;;;;14.52;55.80;100894.41;5024459;28;20526;-64
2021/10/01 09:12:59;;;;;;;4.65;0.60;;;;;;;14.60;56.82;100894.50;5017389;28;20060;-62
2021/10/01 09:15:45;;;;;;;5.20;0.70;;;;;;;14.58;56.21;100892.97;5027781;28;20075;-61
2021/10/01 09:18:32;;;;;;;1.92;0.70;;;;;;;14.95;56.37;100889.22;5024590;28;20060;-62
2021/10/01 09:21:20;;;;;;;1.25;0.50;;;;;;;15.09;55.44;100885.97;5021484;28;20088;-63
2021/10/01 09:24:09;;;;;;;1.83;0.60;;;;;;;15.10;55.60;100876.84;5015089;28;20056;-63
2021/10/01 09:26:56;;;;;;;1.83;0.57;;;;;;;15.29;55.92;100879.34;5024230;28;20064;-63
2021/10/01 09:29:41;;;;;;;1.85;0.65;;;;;;;15.48;55.52;100879.09;5026035;28;20205;-63
2021/10/01 09:32:28;;;;;;;2.00;0.63;;;;;;;15.53;55.00;100880.50;5026016;28;20059;-64
2021/10/01 09:35:15;;;;;;;2.83;0.70;;;;;;;15.37;54.45;100873.97;5017797;28;20056;-62
2021/10/01 09:38:04;;;;;;;2.03;0.68;;;;;;;15.68;54.20;100862.69;5024608;28;20060;-62
2021/10/01 09:41:14;;;;;;;2.22;0.75;;;;;;;15.99;53.67;100863.81;5021199;28;20048;-60
2021/10/01 09:44:02;;;;;;;2.03;0.57;;;;;;;16.16;53.25;100866.56;5016828;28;20196;-62
2021/10/01 09:46:50;;;;;;;3.35;0.85;;;;;;;15.71;52.29;100857.78;5009700;28;20052;-63
2021/10/01 09:49:37;;;;;;;3.15;0.77;;;;;;;15.77;51.75;100856.28;5022584;28;20060;-63
2021/10/01 09:52:21;;;;;;;3.05;0.73;;;;;;;15.81;54.79;100852.25;5022501;28;20064;-64
2021/10/01 09:55:08;;;;;;;1.93;0.50;;;;;;;15.98;53.17;100848.59;5022039;28;20052;-63
2021/10/01 09:58:04;;;;;;;1.05;0.50;;;;;;;16.46;52.72;100852.44;5022964;28;20052;-62
2021/10/01 10:00:52;;;;;;;3.95;0.68;;;;;;;16.35;50.32;100836.50;5018468;28;20173;-63
2021/10/01 10:03:37;;;;;;;6.35;0.90;;;;;;;16.88;50.19;100835.16;5021245;28;20123;-63
2021/10/01 10:06:25;;;;;;;4.43;0.60;;;;;;;16.70;51.12;100842.66;5015554;28;20064;-63
2021/10/01 10:09:10;;;;;;;2.42;0.47;;;;;;;16.64;51.10;100823.28;5021921;28;20169;-62
2021/10/01 10:11:56;;;;;;;3.78;0.77;;;;;;;16.95;52.54;100830.78;5014940;28;20069;-63
2021/10/01 10:14:48;;;;;;;3.58;0.93;;;;;;;17.11;50.71;100824.47;5024033;28;20056;-64
2021/10/01 10:17:33;;;;;;;4.53;0.75;;;;;;;16.69;50.64;100830.09;5022056;28;20048;-63
2021/10/01 10:20:20;;;;;;;4.00;0.80;;;;;;;16.80;50.49;100832.47;5019890;28;20201;-62
2021/10/01 10:23:06;;;;;;;3.47;0.82;;;;;;;16.95;50.81;100830.78;5023245;28;20319;-63
2021/10/01 10:25:51;;;;;;;3.33;0.68;;;;;;;16.87;50.03;100828.06;5023376;28;20069;-62
2021/10/01 10:28:40;;;;;;;3.15;0.70;;;;;;;17.00;51.06;100822.09;5026437;28;20099;-63
2021/10/01 10:31:27;;;;;;;0.80;0.43;;;;;;;16.77;49.65;100822.81;5022921;28;20061;-63
2021/10/01 10:34:21;;;;;;;2.47;0.82;;;;;;;17.04;50.36;100818.88;5021528;28;20151;-63
2021/10/01 10:37:08;;;;;;;1.65;0.60;;;;;;;17.17;51.64;100816.50;5028909;28;20055;-66
2021/10/01 10:39:57;;;;;;;3.70;0.57;;;;;;;17.10;48.54;100818.19;5026311;28;20391;-64
2021/10/01 10:42:44;;;;;;;2.13;0.85;;;;;;;16.82;50.09;100814.19;5026254;28;20061;-62
2021/10/01 10:45:36;;;;;;;3.35;0.70;;;;;;;17.06;51.71;100800.59;5023845;28;20052;-64
2021/10/01 10:48:22;;;;;;;1.95;0.85;;;;;;;17.15;51.79;100804.09;5026255;28;20100;-64
2021/10/01 10:51:06;;;;;;;3.63;0.95;;;;;;;16.93;50.08;100801.13;5023762;28;20052;-62
2021/10/01 10:54:07;;;;;;;1.75;0.60;;;;;;;16.90;52.64;100797.88;5025204;28;20411;-63
2021/10/01 10:57:28;;;;;;;4.20;0.60;;;;;;;16.94;51.50;100801.97;5026651;28;20634;-61
2021/10/01 11:00:28;;;;;;;5.07;0.75;;;;;;;17.23;50.78;100795.97;5024720;28;20526;-64
2021/10/01 11:03:24;;;;;;;0.88;0.50;;;;;;;17.28;50.16;100790.00;5026008;28;20061;-63
2021/10/01 11:06:15;;;;;;;4.60;0.80;;;;;;;17.45;49.61;100783.50;5024652;28;20060;-62
2021/10/01 11:09:24;;;;;;;0.68;0.45;;;;;;;17.53;51.48;100780.78;5023985;28;20103;-63
2021/10/01 11:12:26;;;;;;;1.98;0.50;;;;;;;17.31;48.11;100773.41;5019332;28;20115;-62
2021/10/01 11:15:19;;;;;;;3.90;0.82;;;;;;;17.57;50.72;100775.81;5021755;28;20057;-62
2021/10/01 11:18:18;;;;;;;2.42;0.73;;;;;;;17.46;47.53;100771.63;5023169;28;20084;-62
2021/10/01 11:21:29;;;;;;;1.85;0.60;;;;;;;17.39;48.86;100766.03;5020585;28;20065;-63
2021/10/01 11:24:16;;;;;;;2.92;0.73;;;;;;;17.57;47.85;100760.38;5024248;28;20395;-62
2021/10/01 11:27:02;;;;;;;1.65;0.60;;;;;;;17.54;47.65;100767.03;5022819;28;20060;-62
2021/10/01 11:29:48;;;;;;;3.28;0.75;;;;;;;17.54;47.96;100758.88;5018135;28;20131;-63
2021/10/01 11:32:32;;;;;;;;;;;;;;;17.72;46.25;100752.38;5020642;28;20131;-61
2021/10/01 11:35:18;;;;;;;1.45;0.60;;;;;;;17.68;46.31;100751.84;5023531;28;20410;-62
2021/10/01 11:38:03;;;;;;;2.23;0.60;;;;;;;17.69;44.46;100742.72;5018236;28;20132;-62
2021/10/01 11:40:48;;;;;;;2.67;0.50;;;;;;;17.47;44.48;100746.19;5027303;28;20139;-61
2021/10/01 11:43:33;;;;;;;2.08;0.40;;;;;;;17.75;46.62;100741.97;5025786;28;20055;-63
2021/10/01 11:46:28;;;;;;;3.60;0.77;;;;;;;17.87;45.94;100731.56;5022817;28;20171;-62
2021/10/01 11:49:19;;;;;;;0.88;0.50;;;;;;;17.96;46.94;100741.34;5017688;28;20064;-63
2021/10/01 11:52:09;;;;;;;3.55;0.70;;;;;;;18.03;46.34;100730.63;5024179;28;20208;-62
2021/10/01 11:54:56;;;;;;;3.25;0.40;;;;;;;17.58;46.32;100729.50;5024548;28;20064;-63
2021/10/01 11:57:44;;;;;;;2.60;0.70;;;;;;;17.68;48.21;100723.88;5028834;28;20161;-64
2021/10/01 12:00:30;;;;;;;1.33;0.60;;;;;;;17.86;47.78;100726.31;5024133;28;20128;-62
2021/10/01 12:03:17;;;;;;;;;;;;;;;17.91;45.30;100713.06;5023664;28;20057;-63
2021/10/01 12:06:02;;;;;;;4.30;0.80;;;;;;;18.06;46.52;100709.38;5023151;28;19948;-62
2021/10/01 12:08:55;;;;;;;2.33;0.63;;;;;;;18.41;47.60;100712.47;5021127;28;20060;-64
2021/10/01 12:11:42;;;;;;;1.88;0.60;;;;;;;18.36;44.99;100701.34;5025891;28;20056;-63
2021/10/01 12:14:27;;;;;;;2.50;0.60;;;;;;;18.03;44.09;100696.16;5024193;28;20068;-63
2021/10/01 12:17:12;;;;;;;1.52;0.60;;;;;;;18.30;45.08;100699.34;5021239;28;20048;-64
2021/10/01 12:20:01;;;;;;;1.38;0.65;;;;;;;18.31;46.39;100703.75;5020011;28;20546;-63
2021/10/01 12:22:46;;;;;;;3.30;0.60;;;;;;;18.26;44.49;100685.28;5026608;28;20494;-63
2021/10/01 12:25:31;;;;;;;2.00;0.60;;;;;;;18.11;44.19;100687.97;5011530;28;20181;-62
2021/10/01 12:28:16;;;;;;;1.38;0.70;;;;;;;18.14;45.60;100681.31;5028511;28;20059;-65
2021/10/01 12:31:02;;;;;;;4.43;0.77;;;;;;;18.30;44.61;100680.31;5020279;28;20056;-61
2021/10/01 12:33:48;;;;;;;3.15;0.57;;;;;;;18.34;46.57;100668.88;5021496;28;20056;-63
2021/10/01 12:36:37;;;;;;;3.65;1.00;;;;;;;18.27;44.35;100673.38;5021127;28;20144;-63
2021/10/01 12:39:23;;;;;;;2.40;1.00;;;;;;;18.22;44.94;100662.19;5014260;28;20181;-61
2021/10/01 12:42:10;;;;;;;4.03;0.50;;;;;;;18.23;45.25;100663.91;5024692;28;20057;-65
2021/10/01 12:45:01;;;;;;;1.42;0.55;;;;;;;18.27;43.46;100650.81;5017247;28;20418;-64
2021/10/01 12:47:49;;;;;;;2.08;0.43;;;;;;;18.12;43.14;100639.91;5022923;28;20184;-61
2021/10/01 12:50:34;;;;;;;4.15;0.50;;;;;;;18.33;44.83;100634.59;5017640;28;20052;-62
2021/10/01 12:53:24;;;;;;;2.75;0.90;;;;;;;18.35;43.47;100638.00;5021326;28;20065;-62
2021/10/01 12:56:15;;;;;;;4.85;0.70;;;;;;;18.29;44.77;100636.00;5022472;28;20056;-61
2021/10/01 12:59:00;;;;;;;3.42;0.63;;;;;;;18.37;43.66;100624.22;5022176;28;20662;-63
2021/10/01 13:01:46;;;;;;;2.20;0.40;;;;;;;18.21;43.13;100622.47;5025327;28;20060;-63
2021/10/01 13:04:45;;;;;;;3.85;0.52;;;;;;;18.07;43.01;100620.59;5018841;28;20528;-63
2021/10/01 13:07:33;;;;;;;3.35;0.50;;;;;;;18.20;45.36;100620.78;5023355;28;20199;-64
2021/10/01 13:10:37;;;;;;;3.28;0.57;;;;;;;18.26;43.65;100611.09;5021819;28;20069;-63
2021/10/01 13:13:27;;;;;;;1.20;0.55;;;;;;;18.37;43.55;100607.91;5016322;28;20435;-61
2021/10/01 13:16:13;;;;;;;3.55;0.85;;;;;;;18.29;43.10;100602.56;5018765;28;20163;-63
2021/10/01 13:19:11;;;;;;;2.63;0.63;;;;;;;18.29;42.82;100603.41;5081561;23;20535;-65
2021/10/01 13:21:57;;;;;;;3.70;0.60;;;;;;;18.24;43.35;100605.00;5023810;28;20514;-65
2021/10/01 13:24:42;;;;;;;4.90;0.70;;;;;;;18.21;42.54;100600.75;5027189;28;20064;-63
2021/10/01 13:27:28;;;;;;;1.40;0.50;;;;;;;18.26;42.67;100598.34;5022312;28;20056;-64
2021/10/01 13:30:13;;;;;;;3.22;0.50;;;;;;;18.21;42.77;100589.88;5018967;28;20628;-65
2021/10/01 13:32:59;;;;;;;1.67;0.60;;;;;;;18.33;42.40;100585.69;5025037;28;20056;-61
2021/10/01 13:35:44;;;;;;;0.60;0.40;;;;;;;18.30;41.69;100591.50;5021240;28;20104;-63
2021/10/01 13:38:32;;;;;;;5.93;0.95;;;;;;;18.68;41.36;100592.28;5020783;28;20049;-64
2021/10/01 13:41:20;;;;;;;3.58;0.60;;;;;;;19.99;39.04;100585.78;5020884;28;20140;-63
2021/10/01 13:44:07;;;;;;;1.92;0.60;;;;;;;22.01;36.25;100573.41;5017168;28;20541;-64
2021/10/01 13:46:52;;;;;;;1.75;0.57;;;;;;;22.51;34.02;100572.97;5021296;28;20414;-63
2021/10/01 13:49:37;;;;;;;5.43;0.67;;;;;;;22.35;34.44;100568.78;5023687;28;20191;-62
2021/10/01 13:52:22;;;;;;;2.97;0.40;;;;;;;21.66;35.06;100566.47;5020430;28;20319;-59
2021/10/01 13:55:10;;;;;;;2.35;0.55;;;;;;;22.45;35.13;100556.34;5020350;28;20511;-62
2021/10/01 13:57:55;;;;;;;3.30;0.50;;;;;;;23.12;33.49;100567.09;5016808;28;20069;-62
2021/10/01 14:00:42;;;;;;;1.92;0.60;;;;;;;24.13;30.55;100559.63;5024192;28;20542;-60
2021/10/01 14:03:28;;;;;;;4.85;0.77;;;;;;;25.23;29.77;100545.97;5021584;28;20056;-61
2021/10/01 14:06:13;;;;;;;3.30;0.60;;;;;;;25.10;28.95;100548.88;5022632;28;20048;-66
2021/10/01 14:08:58;;;;;;;4.35;0.52;;;;;;;25.24;29.06;100544.03;5018519;28;20045;-64
2021/10/01 14:11:43;;;;;;;0.98;0.50;;;;;;;25.55;28.36;100553.91;5019998;28;20426;-62
2021/10/01 14:14:28;;;;;;;1.45;0.50;;;;;;;25.27;28.06;100544.41;5023181;28;20059;-63
2021/10/01 14:17:15;;;;;;;4.00;0.70;;;;;;;25.92;28.02;100538.94;5024000;28;20099;-64
2021/10/01 14:20:00;;;;;;;3.80;0.40;;;;;;;25.08;28.33;100534.53;5012265;28;20052;-65
2021/10/01 14:22:47;;;;;;;3.25;0.52;;;;;;;24.46;29.18;100529.16;5024287;28;20056;-63
2021/10/01 14:25:32;;;;;;;1.35;0.55;;;;;;;24.78;29.57;100518.00;5017772;28;20789;-64
2021/10/01 14:28:17;;;;;;;2.60;0.60;;;;;;;25.65;27.95;100521.22;5021964;28;20123;-63